EDLN METAR and TAF | Updated Today

EDLN METAR

Mönchengladbach Airport

Observation time: 22 min. ago

EDLN 292020Z AUTO 00000KT 9999 // NCD 05/05 Q1006

Need help? Read our tutorial on how to read METARs or read the parsed version below.

Mönchengladbach Airport (EDLN) METAR

  • Weather conditions on Thu, 29 Sep 2022 20:20:00 +0000 (22 min. ago):
  • Present conditions: Dry
  • Clouds: Nil cloud detected
  • Visibility: Greater than 10 km
  • Wind: Calm
  • Temperature: 5 celsius
  • Dew point: 5 celsius
  • Pressure: 1006 millibars
  • Remarks: None


Useful to know...

EDLN TAF

Mönchengladbach Airport

TAF EDLN 291700Z 2918/3003 VRB01KT CAVOK BECMG 2920/2922 3000 BCFG TEMPO 2922/3003 0300 FG
Observation time: 3:42 hr. ago
Need help? Read our tutorial on how to read TAFs or read the parsed version below.

Parsed version of TAF for Mönchengladbach Airport (EDLN)

  • From 29 September at 18:00 UTC, to day 30 of the month at 03:00 UTC
  • Visibility: Greater than 10 km
  • Wind: Variable at 1
  • Expected to arise soon, from 29 September at 20:00 UTC, to day 29 of the month at 22:00 UTC
  • Visibility: 3000 meters
  • Other: Patches of fog
  • Expected to arise temporarily, from 29 September at 22:00 UTC, to day 30 of the month at 03:00 UTC
  • Visibility: 300 meters
  • Other: Fog